Huachuca City, Arizona
Current Conditions -  °F | °C
As of 10:56 PM on Saturday 22 Nov 2014 (Local Time) from KFHU Reporting Station
Clear Clear  
Wind Chill: 36°   Ceiling: Unl
Heat Index: 41°   Visibility: 10mi
Dew Point: 25°   Wind: 7mph
Humidity: 53%   Direction: 270°W
Pressure: 30.04"   Gusts: NA
Location:  31.63°N, 110.33°W
Report Text: KFHU 230556Z AUTO 27006KT 10SM CLR 05/M04 A3004 RMK AO2 SLP152 T00501039 10156 20050 56006 $
Loading
Personal Weather Stations






























Interactive Weather Map New forecast layout! Learn more

10-Day Weather Forecast

Advertisements
Track Severe Weather on mobile